createdAt,value
2023-03-29T00:01:35.105Z,1.44
2023-03-29T00:04:05.090Z,1.40
2023-03-29T00:06:36.071Z,1.36
2023-03-29T00:09:10.049Z,1.33
2023-03-29T00:11:45.778Z,1.31
2023-03-29T00:14:17.004Z,1.30
2023-03-29T00:16:47.125Z,1.29
2023-03-29T00:19:15.744Z,1.26
2023-03-29T00:21:46.691Z,1.23
2023-03-29T00:24:14.842Z,1.20
2023-03-29T00:26:43.226Z,1.18
2023-03-29T00:29:16.458Z,1.17
2023-03-29T00:31:53.908Z,1.16
2023-03-29T00:34:28.474Z,1.14
2023-03-29T00:36:59.462Z,1.11
2023-03-29T00:39:28.066Z,1.08
2023-03-29T00:42:02.767Z,1.08
2023-03-29T00:45:08.330Z,1.07
2023-03-29T00:47:57.117Z,1.07
2023-03-29T00:50:41.912Z,1.06
2023-03-29T00:53:19.239Z,1.05
2023-03-29T00:56:11.216Z,1.04
2023-03-29T00:58:52.371Z,1.00
2023-03-29T01:01:28.759Z,0.97
2023-03-29T01:04:33.975Z,0.93
2023-03-29T01:07:03.901Z,0.92
2023-03-29T01:09:34.776Z,0.93
2023-03-29T01:12:17.253Z,0.94
2023-03-29T01:15:04.257Z,0.95
2023-03-29T01:17:35.346Z,0.95
2023-03-29T01:20:42.323Z,0.95
2023-03-29T01:23:22.246Z,0.96
2023-03-29T01:26:03.169Z,0.95
2023-03-29T01:29:06.892Z,0.94
2023-03-29T01:31:42.495Z,0.95
2023-03-29T01:34:22.962Z,0.93
2023-03-29T01:37:00.411Z,0.91
2023-03-29T01:39:28.634Z,0.91
2023-03-29T01:42:02.852Z,0.90
2023-03-29T01:44:38.154Z,0.90
2023-03-29T01:47:23.602Z,0.88
2023-03-29T01:49:59.653Z,0.87
2023-03-29T01:52:38.556Z,0.85
2023-03-29T01:55:20.279Z,0.83
2023-03-29T01:57:52.219Z,0.82
2023-03-29T02:00:25.874Z,0.83
2023-03-29T02:03:01.460Z,0.78
2023-03-29T02:05:33.742Z,0.76
2023-03-29T02:08:05.558Z,0.73
2023-03-29T02:10:34.527Z,0.72
2023-03-29T02:13:05.692Z,0.71
2023-03-29T02:15:35.027Z,0.71
2023-03-29T02:18:08.696Z,0.73
2023-03-29T02:20:40.690Z,0.72
2023-03-29T02:23:14.583Z,0.71
2023-03-29T02:25:46.704Z,0.74
2023-03-29T02:28:14.929Z,0.77
2023-03-29T02:31:01.277Z,0.81
2023-03-29T02:33:53.637Z,0.84
2023-03-29T02:36:27.106Z,0.87
2023-03-29T02:39:05.870Z,0.85
2023-03-29T02:41:38.467Z,0.85
2023-03-29T02:44:12.252Z,0.87
2023-03-29T02:46:52.106Z,0.90
2023-03-29T02:49:20.512Z,0.93
2023-03-29T02:51:56.854Z,0.95
2023-03-29T02:54:31.615Z,0.98
2023-03-29T02:57:07.752Z,0.98
2023-03-29T02:59:38.526Z,1.01
2023-03-29T03:02:07.334Z,1.04
2023-03-29T03:04:36.235Z,1.08
2023-03-29T03:07:09.864Z,1.11
2023-03-29T03:09:38.074Z,1.14
2023-03-29T03:12:07.677Z,1.14
2023-03-29T03:14:36.521Z,1.17
2023-03-29T03:17:05.046Z,1.20
2023-03-29T03:19:46.166Z,1.23
2023-03-29T03:22:16.743Z,1.25
2023-03-29T03:24:46.189Z,1.29
2023-03-29T03:27:20.098Z,1.32
2023-03-29T03:29:48.739Z,1.35
2023-03-29T03:32:46.627Z,1.36
2023-03-29T03:35:33.855Z,1.38
2023-03-29T03:38:15.064Z,1.41
2023-03-29T03:40:44.218Z,1.42
2023-03-29T03:43:12.822Z,1.42
2023-03-29T03:45:52.565Z,1.42
2023-03-29T03:48:29.042Z,1.43
2023-03-29T03:51:07.570Z,1.43
2023-03-29T03:53:37.130Z,1.44
2023-03-29T03:56:39.968Z,1.44
2023-03-29T03:59:16.231Z,1.43
2023-03-29T04:02:05.416Z,1.44
2023-03-29T04:04:47.901Z,1.45
2023-03-29T04:07:19.565Z,1.47
2023-03-29T04:10:03.356Z,1.48
2023-03-29T04:12:53.634Z,1.47
2023-03-29T04:15:26.670Z,1.46
2023-03-29T04:18:01.085Z,1.45
2023-03-29T04:20:37.198Z,1.43
2023-03-29T04:23:05.771Z,1.42
2023-03-29T04:25:40.960Z,1.43
2023-03-29T04:28:34.486Z,1.44
2023-03-29T04:31:26.140Z,1.46
2023-03-29T04:34:17.025Z,1.49
2023-03-29T04:36:53.142Z,1.51
2023-03-29T04:39:34.100Z,1.51
2023-03-29T04:42:12.536Z,1.53
2023-03-29T04:44:42.713Z,1.53
2023-03-29T04:47:14.814Z,1.51
2023-03-29T04:49:53.615Z,1.53
2023-03-29T04:52:33.581Z,1.56
2023-03-29T04:55:03.941Z,1.58
2023-03-29T04:57:53.726Z,1.64
2023-03-29T05:00:29.055Z,1.68
2023-03-29T05:03:04.418Z,1.70
2023-03-29T05:05:34.658Z,1.72
2023-03-29T05:08:03.739Z,1.76
2023-03-29T05:10:43.455Z,1.78
2023-03-29T05:13:15.028Z,1.82
2023-03-29T05:15:43.541Z,1.85
2023-03-29T05:18:14.502Z,1.90
2023-03-29T05:20:53.148Z,1.96
2023-03-29T05:23:22.019Z,2.03
2023-03-29T05:26:10.038Z,2.09
2023-03-29T05:28:39.491Z,2.15
2023-03-29T05:31:08.721Z,2.20
2023-03-29T05:33:39.602Z,2.25
2023-03-29T05:36:13.843Z,2.32
2023-03-29T05:38:50.044Z,2.40
2023-03-29T05:41:19.412Z,2.50
2023-03-29T05:43:59.357Z,2.60
2023-03-29T05:46:27.910Z,2.69
2023-03-29T05:49:03.138Z,2.79
2023-03-29T05:51:45.911Z,2.94
2023-03-29T05:54:16.950Z,3.09
2023-03-29T05:56:44.983Z,3.22
2023-03-29T05:59:13.883Z,3.33
2023-03-29T06:01:42.787Z,3.46
2023-03-29T06:04:12.644Z,3.61
2023-03-29T06:06:46.626Z,3.75
2023-03-29T06:09:23.985Z,3.88
2023-03-29T06:12:01.892Z,3.97
2023-03-29T06:14:48.246Z,4.05
2023-03-29T06:17:36.523Z,4.10
2023-03-29T06:20:11.625Z,4.16
2023-03-29T06:22:41.980Z,4.23
2023-03-29T06:25:12.473Z,4.29
2023-03-29T06:27:41.369Z,4.36
2023-03-29T06:30:15.480Z,4.43
2023-03-29T06:32:57.982Z,4.52
2023-03-29T06:35:52.716Z,4.59
2023-03-29T06:38:31.349Z,4.66
2023-03-29T06:41:18.149Z,4.74
2023-03-29T06:43:57.831Z,4.77
2023-03-29T06:46:32.931Z,4.82
2023-03-29T06:49:28.552Z,4.89
2023-03-29T06:52:15.819Z,4.96
2023-03-29T06:54:46.769Z,5.02
2023-03-29T06:57:15.157Z,5.08
2023-03-29T06:59:43.456Z,5.12
2023-03-29T07:02:18.417Z,5.16
2023-03-29T07:04:49.469Z,5.21
2023-03-29T07:07:44.071Z,5.25
2023-03-29T07:10:26.456Z,5.32
2023-03-29T07:13:13.445Z,5.41
2023-03-29T07:15:42.378Z,5.49
2023-03-29T07:18:28.552Z,5.61
2023-03-29T07:20:57.359Z,5.76
2023-03-29T07:23:25.442Z,5.90
2023-03-29T07:25:54.184Z,6.04
2023-03-29T07:28:22.763Z,6.18
2023-03-29T07:30:53.101Z,6.30
2023-03-29T07:33:22.469Z,6.42
2023-03-29T07:35:56.203Z,6.59
2023-03-29T07:38:25.238Z,6.80
2023-03-29T07:41:04.275Z,7.02
2023-03-29T07:43:46.780Z,7.23
2023-03-29T07:46:17.250Z,7.41
2023-03-29T07:48:45.294Z,7.56
2023-03-29T07:51:16.291Z,7.68
2023-03-29T07:53:49.908Z,7.86
2023-03-29T07:56:38.575Z,8.07
2023-03-29T07:59:19.100Z,8.24
2023-03-29T13:02:39.463Z,17.81
2023-03-29T13:05:29.234Z,17.76
2023-03-29T13:07:57.239Z,17.92
2023-03-29T13:10:38.303Z,18.11
2023-03-29T13:13:27.976Z,18.16
2023-03-29T13:15:56.908Z,18.17
2023-03-29T13:19:02.656Z,18.11
2023-03-29T13:21:52.490Z,18.18
2023-03-29T13:24:33.596Z,18.25
2023-03-29T13:27:21.598Z,18.21
2023-03-29T13:30:00.881Z,17.86
2023-03-29T13:32:47.381Z,17.43
2023-03-29T13:35:27.799Z,17.06
2023-03-29T13:38:18.028Z,17.02
2023-03-29T13:41:08.325Z,17.03
2023-03-29T13:43:56.839Z,17.27
2023-03-29T13:46:41.101Z,17.80
2023-03-29T13:49:17.324Z,18.05
2023-03-29T13:52:17.826Z,18.14
2023-03-29T13:55:25.211Z,18.27
2023-03-29T13:58:17.629Z,18.58
2023-03-29T14:00:56.064Z,18.63
2023-03-29T14:03:29.928Z,18.58
2023-03-29T14:06:00.833Z,18.56
2023-03-29T14:08:39.913Z,18.50
2023-03-29T14:11:18.907Z,18.56
2023-03-29T14:13:47.490Z,18.57
2023-03-29T14:16:16.006Z,18.48
2023-03-29T14:18:46.403Z,18.20
2023-03-29T14:21:15.042Z,17.90
2023-03-29T14:23:45.426Z,17.66
2023-03-29T14:26:19.055Z,17.62
2023-03-29T14:28:56.699Z,17.67
2023-03-29T14:31:26.902Z,17.72
2023-03-29T14:33:56.681Z,17.89
2023-03-29T14:36:26.442Z,18.14
2023-03-29T14:38:59.653Z,18.27
2023-03-29T14:41:31.730Z,18.49
2023-03-29T14:43:59.494Z,19.00
2023-03-29T14:46:27.578Z,19.32
2023-03-29T14:48:56.640Z,19.37
2023-03-29T14:51:30.535Z,19.63
2023-03-29T14:54:01.057Z,20.29
2023-03-29T14:56:29.461Z,21.04
2023-03-29T14:58:57.609Z,21.93
2023-03-29T15:01:26.965Z,22.81
2023-03-29T15:04:02.510Z,23.25
2023-03-29T15:06:30.918Z,23.05
2023-03-29T15:09:06.503Z,23.05
2023-03-29T15:11:35.858Z,23.09
2023-03-29T15:14:09.498Z,22.41
2023-03-29T15:16:41.278Z,20.85
2023-03-29T15:19:27.514Z,19.33
2023-03-29T15:21:55.640Z,17.95
2023-03-29T15:24:32.138Z,17.06
2023-03-29T15:27:11.176Z,16.37
2023-03-29T15:29:42.390Z,15.78
2023-03-29T15:32:20.575Z,15.17
2023-03-29T15:34:59.239Z,14.60
2023-03-29T15:37:27.905Z,14.11
2023-03-29T15:39:56.469Z,13.69
2023-03-29T15:42:25.865Z,13.33
2023-03-29T15:44:56.196Z,12.95
2023-03-29T15:47:24.475Z,12.59
2023-03-29T15:49:53.050Z,12.29
2023-03-29T15:52:21.581Z,12.03
2023-03-29T15:54:49.512Z,11.80
2023-03-29T15:57:17.890Z,11.64
2023-03-29T15:59:46.284Z,11.46
2023-03-29T16:02:20.317Z,11.32
2023-03-29T16:04:48.458Z,11.19
2023-03-29T16:07:18.125Z,11.06
2023-03-29T16:09:46.312Z,10.97
2023-03-29T16:12:16.300Z,10.92
2023-03-29T16:14:44.252Z,10.89
2023-03-29T16:17:12.414Z,10.85
2023-03-29T16:19:40.490Z,10.80
2023-03-29T16:22:08.468Z,10.75
2023-03-29T16:24:36.630Z,10.75
2023-03-29T16:27:04.822Z,10.71
2023-03-29T16:29:32.990Z,10.66
2023-03-29T16:32:01.278Z,10.62
2023-03-29T16:34:30.135Z,10.57
2023-03-29T16:36:58.197Z,10.54
2023-03-29T16:39:26.185Z,10.51
2023-03-29T16:41:54.537Z,10.48
2023-03-29T16:44:24.365Z,10.45
2023-03-29T16:46:54.471Z,10.37
2023-03-29T16:49:24.261Z,10.29
2023-03-29T16:51:52.161Z,10.24
2023-03-29T16:54:20.225Z,10.20
2023-03-29T16:56:48.250Z,10.12
2023-03-29T16:59:19.087Z,10.06
2023-03-29T17:01:47.728Z,10.02
2023-03-29T17:04:16.084Z,9.98
2023-03-29T17:06:44.130Z,9.93
2023-03-29T17:09:12.245Z,9.88
2023-03-29T17:11:41.427Z,9.84
2023-03-29T17:14:12.353Z,9.78
2023-03-29T17:16:40.622Z,9.73
2023-03-29T17:19:08.628Z,9.70
2023-03-29T17:21:38.774Z,9.68
2023-03-29T17:24:07.321Z,9.66
2023-03-29T17:26:38.575Z,9.65
2023-03-29T17:29:06.536Z,9.63
2023-03-29T17:31:36.290Z,9.63
2023-03-29T17:34:04.476Z,9.62
2023-03-29T17:36:33.818Z,9.59
2023-03-29T17:39:02.885Z,9.59
2023-03-29T17:41:31.474Z,9.58
2023-03-29T17:43:59.887Z,9.54
2023-03-29T17:46:28.736Z,9.53
2023-03-29T17:48:59.304Z,9.50
2023-03-29T17:51:28.172Z,9.46
2023-03-29T17:53:57.658Z,9.42
2023-03-29T17:56:27.063Z,9.37
2023-03-29T17:58:56.376Z,9.33
2023-03-29T18:01:27.574Z,9.28
2023-03-29T18:03:59.605Z,9.24
2023-03-29T18:06:32.255Z,9.21
2023-03-29T18:09:01.984Z,9.19
2023-03-29T18:11:32.598Z,9.14
2023-03-29T18:14:01.609Z,9.09
2023-03-29T18:16:31.263Z,9.01
2023-03-29T18:19:03.164Z,8.98
2023-03-29T18:21:32.188Z,8.93
2023-03-29T18:24:01.521Z,8.93
2023-03-29T18:26:30.540Z,8.91
2023-03-29T18:28:59.063Z,8.89
2023-03-29T18:31:28.210Z,8.88
2023-03-29T18:33:56.333Z,8.86
2023-03-29T18:36:25.750Z,8.81
2023-03-29T18:38:55.773Z,8.80
2023-03-29T18:41:23.948Z,8.81
2023-03-29T18:43:52.151Z,8.81
2023-03-29T18:46:20.521Z,8.84
2023-03-29T18:48:48.576Z,8.87
2023-03-29T18:51:16.930Z,8.91
2023-03-29T18:53:45.573Z,8.96
2023-03-29T18:56:13.752Z,8.99
2023-03-29T18:58:41.860Z,9.00
2023-03-29T19:01:10.950Z,9.03
2023-03-29T19:03:38.875Z,9.05
2023-03-29T19:06:09.822Z,9.07
2023-03-29T19:08:40.577Z,9.08
2023-03-29T19:11:11.491Z,9.07
2023-03-29T19:13:40.506Z,9.06
2023-03-29T19:16:09.430Z,9.06
2023-03-29T19:18:37.991Z,9.07
2023-03-29T19:21:06.552Z,9.05
2023-03-29T19:23:37.565Z,9.03
2023-03-29T19:26:06.269Z,9.03
2023-03-29T19:28:34.620Z,9.02
2023-03-29T19:31:03.387Z,9.03
2023-03-29T19:33:31.780Z,9.04
2023-03-29T19:35:59.683Z,9.04
2023-03-29T19:38:30.235Z,9.04
2023-03-29T19:40:58.026Z,9.06
2023-03-29T19:43:26.492Z,9.06
2023-03-29T19:45:54.598Z,9.06
2023-03-29T19:48:24.348Z,9.07
2023-03-29T19:50:52.909Z,9.07
2023-03-29T19:53:21.257Z,9.06
2023-03-29T19:55:52.498Z,9.03
2023-03-29T19:58:20.718Z,9.02
2023-03-29T20:00:50.885Z,9.01
2023-03-29T20:03:21.775Z,9.00
2023-03-29T20:05:49.685Z,9.02
2023-03-29T20:08:17.744Z,9.03
2023-03-29T20:10:45.583Z,9.05
2023-03-29T20:13:14.579Z,9.05
2023-03-29T20:15:47.052Z,9.05
2023-03-29T20:18:14.957Z,9.04
2023-03-29T20:20:44.686Z,9.02
2023-03-29T20:23:12.934Z,9.01
2023-03-29T20:25:41.023Z,8.99
2023-03-29T20:28:12.873Z,8.95
2023-03-29T20:30:41.447Z,8.95
2023-03-29T20:33:09.366Z,8.96
2023-03-29T20:35:37.384Z,8.97
2023-03-29T20:38:14.778Z,9.00
2023-03-29T20:40:42.861Z,9.01
2023-03-29T20:43:13.421Z,8.99
2023-03-29T20:45:52.616Z,8.99
2023-03-29T20:48:24.256Z,9.00
2023-03-29T20:50:52.318Z,9.01
2023-03-29T20:53:23.012Z,9.02
2023-03-29T20:56:00.187Z,9.02
2023-03-29T20:58:29.100Z,9.04
2023-03-29T21:00:59.820Z,9.07
2023-03-29T21:03:27.767Z,9.08
2023-03-29T21:05:55.738Z,9.09
2023-03-29T21:08:29.873Z,9.10
2023-03-29T21:10:57.876Z,9.11
2023-03-29T21:13:25.889Z,9.12
2023-03-29T21:15:53.795Z,9.14
2023-03-29T21:18:23.499Z,9.15
2023-03-29T21:20:54.772Z,9.17
2023-03-29T21:23:22.826Z,9.17
2023-03-29T21:25:51.201Z,9.18
2023-03-29T21:28:21.958Z,9.20
2023-03-29T21:30:50.097Z,9.22
2023-03-29T21:33:18.014Z,9.22
2023-03-29T21:35:49.135Z,9.22
2023-03-29T21:38:17.369Z,9.23
2023-03-29T21:40:45.451Z,9.24
2023-03-29T21:43:13.340Z,9.25
2023-03-29T21:45:41.428Z,9.25
2023-03-29T21:48:09.511Z,9.27
2023-03-29T21:50:37.518Z,9.28
2023-03-29T21:53:05.325Z,9.29
2023-03-29T21:55:36.220Z,9.30
2023-03-29T21:58:04.938Z,9.32
2023-03-29T22:00:33.140Z,9.35
2023-03-29T22:03:01.137Z,9.36
2023-03-29T22:05:29.128Z,9.37
2023-03-29T22:07:58.850Z,9.38
2023-03-29T22:10:27.434Z,9.39
2023-03-29T22:12:57.138Z,9.39
2023-03-29T22:15:24.985Z,9.39
2023-03-29T22:17:53.444Z,9.39
2023-03-29T22:20:22.433Z,9.39
2023-03-29T22:22:51.109Z,9.39
2023-03-29T22:25:19.791Z,9.40
2023-03-29T22:27:48.813Z,9.41
2023-03-29T22:30:17.354Z,9.42
2023-03-29T22:32:45.523Z,9.43
2023-03-29T22:35:13.613Z,9.45
2023-03-29T22:37:45.670Z,9.46
2023-03-29T22:40:14.060Z,9.47
2023-03-29T22:42:41.923Z,9.48
2023-03-29T22:45:10.520Z,9.48
2023-03-29T22:47:38.458Z,9.48
2023-03-29T22:50:07.414Z,9.50
2023-03-29T22:52:35.461Z,9.51
2023-03-29T22:55:06.553Z,9.52
2023-03-29T22:57:34.669Z,9.54
2023-03-29T23:00:09.493Z,9.55
2023-03-29T23:02:37.805Z,9.58
2023-03-29T23:05:06.421Z,9.59
2023-03-29T23:07:36.518Z,9.60
2023-03-29T23:10:06.461Z,9.60
2023-03-29T23:12:36.266Z,9.61
2023-03-29T23:15:08.087Z,9.62
2023-03-29T23:17:37.370Z,9.63
2023-03-29T23:20:06.119Z,9.65
2023-03-29T23:22:36.245Z,9.68
2023-03-29T23:25:04.552Z,9.69
2023-03-29T23:27:33.158Z,9.71
2023-03-29T23:30:01.734Z,9.73
2023-03-29T23:32:29.900Z,9.75
2023-03-29T23:34:58.048Z,9.75
2023-03-29T23:37:26.157Z,9.75
2023-03-29T23:39:54.167Z,9.75
2023-03-29T23:42:22.597Z,9.75
2023-03-29T23:44:51.223Z,9.76
2023-03-29T23:47:19.493Z,9.76
2023-03-29T23:49:47.784Z,9.76
2023-03-29T23:52:15.603Z,9.76
2023-03-29T23:54:43.416Z,9.77
2023-03-29T23:57:11.404Z,9.77
2023-03-29T23:59:40.110Z,9.76
